Union Mills, Iowa
Current Conditions -  °F | °C
As of 2:55 AM on Saturday 22 Nov 2014 (Local Time) from KPEA Reporting Station
Overcast Overcast  
Wind Chill: 34°   Ceiling: 900
Heat Index: 37°   Visibility: 7mi
Dew Point: 35°   Wind: 5mph
Humidity: 90%   Direction: 180°S
Pressure: 30"   Gusts: NA
Location:  41.465°N, 92.7016°W
Report Text: KPEA 220855Z AUTO 18004KT 7SM OVC009 03/02 A3000 RMK AO2 T00300015
Loading
Personal Weather Stations






























Interactive Weather Map New forecast layout! Learn more

10-Day Weather Forecast

Advertisements
Track Severe Weather on mobile